Terminal Aerodrome Forecast
Issued by NWS

Home | Current Version | Previous Version | Text Only | Print | Product List | Glossary On
Versions: 1 2 3 4 5 6 7 8 9 10 11 12 13 14 15 16 17 18 19
000
FTUS43 KMPX 310524
TAFRWF
TAF
KRWF 310524Z 3106/0106 17005KT P6SM BKN200
     FM311130 32008KT P6SM BKN015
     FM311800 04010KT P6SM BKN020
     FM010300 05014G22KT 6SM -SN BR SCT015 BKN050=

USA.gov is the U.S. government's official web portal to all federal, state and local government web resources and services.